sensor_id;sensor_type;location;lat;lon;timestamp;temperature;humidity
67196;DHT22;54122;53.538;49.366;2023-02-24T00:01:38;-11.90;78.90
67196;DHT22;54122;53.538;49.366;2023-02-24T00:04:12;-12.00;78.80
67196;DHT22;54122;53.538;49.366;2023-02-24T00:06:40;-11.90;78.90
67196;DHT22;54122;53.538;49.366;2023-02-24T00:09:21;-12.00;78.60
67196;DHT22;54122;53.538;49.366;2023-02-24T00:11:56;-12.00;78.80
67196;DHT22;54122;53.538;49.366;2023-02-24T00:14:24;-12.00;78.90
67196;DHT22;54122;53.538;49.366;2023-02-24T00:16:51;-12.00;78.90
67196;DHT22;54122;53.538;49.366;2023-02-24T00:19:21;-12.00;78.80
67196;DHT22;54122;53.538;49.366;2023-02-24T00:21:49;-12.10;78.80
67196;DHT22;54122;53.538;49.366;2023-02-24T00:24:16;-12.10;78.80
67196;DHT22;54122;53.538;49.366;2023-02-24T00:26:43;-12.20;78.70
67196;DHT22;54122;53.538;49.366;2023-02-24T00:29:12;-12.20;78.80
67196;DHT22;54122;53.538;49.366;2023-02-24T00:31:41;-12.30;78.90
67196;DHT22;54122;53.538;49.366;2023-02-24T00:34:08;-12.30;78.90
67196;DHT22;54122;53.538;49.366;2023-02-24T00:36:34;-12.30;79.10
67196;DHT22;54122;53.538;49.366;2023-02-24T00:39:03;-12.30;79.20
67196;DHT22;54122;53.538;49.366;2023-02-24T00:41:39;-12.30;79.30
67196;DHT22;54122;53.538;49.366;2023-02-24T00:44:08;-12.30;79.30
67196;DHT22;54122;53.538;49.366;2023-02-24T00:46:37;-12.30;79.30
67196;DHT22;54122;53.538;49.366;2023-02-24T00:49:06;-12.20;79.70
67196;DHT22;54122;53.538;49.366;2023-02-24T00:51:38;-12.20;80.60
67196;DHT22;54122;53.538;49.366;2023-02-24T00:54:05;-12.10;79.40
67196;DHT22;54122;53.538;49.366;2023-02-24T00:56:31;-12.10;79.30
67196;DHT22;54122;53.538;49.366;2023-02-24T00:58:58;-12.20;79.30
67196;DHT22;54122;53.538;49.366;2023-02-24T01:01:28;-12.20;79.20
67196;DHT22;54122;53.538;49.366;2023-02-24T01:03:58;-12.20;79.20
67196;DHT22;54122;53.538;49.366;2023-02-24T01:06:27;-12.30;79.10
67196;DHT22;54122;53.538;49.366;2023-02-24T01:08:55;-12.30;79.30
67196;DHT22;54122;53.538;49.366;2023-02-24T01:11:24;-12.20;79.70
67196;DHT22;54122;53.538;49.366;2023-02-24T01:14:16;-12.20;79.70
67196;DHT22;54122;53.538;49.366;2023-02-24T01:16:43;-12.20;79.60
67196;DHT22;54122;53.538;49.366;2023-02-24T01:19:11;-12.20;79.70
67196;DHT22;54122;53.538;49.366;2023-02-24T01:21:37;-12.20;79.60
67196;DHT22;54122;53.538;49.366;2023-02-24T01:24:03;-12.20;79.40
67196;DHT22;54122;53.538;49.366;2023-02-24T01:26:30;-12.30;79.50
67196;DHT22;54122;53.538;49.366;2023-02-24T01:28:56;-12.30;79.70
67196;DHT22;54122;53.538;49.366;2023-02-24T01:31:22;-12.30;79.80
67196;DHT22;54122;53.538;49.366;2023-02-24T01:33:50;-12.40;79.70
67196;DHT22;54122;53.538;49.366;2023-02-24T01:36:23;-12.40;79.70
67196;DHT22;54122;53.538;49.366;2023-02-24T01:38:51;-12.50;79.60
67196;DHT22;54122;53.538;49.366;2023-02-24T01:41:22;-12.50;79.50
67196;DHT22;54122;53.538;49.366;2023-02-24T01:45:02;-12.50;79.40
67196;DHT22;54122;53.538;49.366;2023-02-24T01:46:54;-12.60;79.30
67196;DHT22;54122;53.538;49.366;2023-02-24T01:49:37;-12.70;79.50
67196;DHT22;54122;53.538;49.366;2023-02-24T01:57:23;-12.70;79.90
67196;DHT22;54122;53.538;49.366;2023-02-24T01:59:53;-12.70;80.10
67196;DHT22;54122;53.538;49.366;2023-02-24T02:02:27;-12.70;80.20
67196;DHT22;54122;53.538;49.366;2023-02-24T02:05:02;-12.70;80.40
67196;DHT22;54122;53.538;49.366;2023-02-24T02:07:30;-12.70;80.40
67196;DHT22;54122;53.538;49.366;2023-02-24T02:09:58;-12.70;80.40
67196;DHT22;54122;53.538;49.366;2023-02-24T02:12:30;-12.60;80.40
67196;DHT22;54122;53.538;49.366;2023-02-24T02:15:02;-12.60;80.50
67196;DHT22;54122;53.538;49.366;2023-02-24T02:18:26;-12.50;80.70
67196;DHT22;54122;53.538;49.366;2023-02-24T02:21:58;-12.50;80.50
67196;DHT22;54122;53.538;49.366;2023-02-24T02:23:52;-12.50;80.50
67196;DHT22;54122;53.538;49.366;2023-02-24T02:26:36;-12.60;80.30
67196;DHT22;54122;53.538;49.366;2023-02-24T02:32:13;-12.50;80.60
67196;DHT22;54122;53.538;49.366;2023-02-24T02:34:55;-12.50;80.50
67196;DHT22;54122;53.538;49.366;2023-02-24T02:40:27;-12.50;80.70
67196;DHT22;54122;53.538;49.366;2023-02-24T02:45:47;-12.40;81.00
67196;DHT22;54122;53.538;49.366;2023-02-24T02:51:16;-12.30;81.00
67196;DHT22;54122;53.538;49.366;2023-02-24T02:54:15;-12.30;80.80
67196;DHT22;54122;53.538;49.366;2023-02-24T02:56:47;-12.20;80.60
67196;DHT22;54122;53.538;49.366;2023-02-24T02:59:17;-12.30;80.50
67196;DHT22;54122;53.538;49.366;2023-02-24T03:01:49;-12.30;80.60
67196;DHT22;54122;53.538;49.366;2023-02-24T03:04:19;-12.30;80.80
67196;DHT22;54122;53.538;49.366;2023-02-24T03:06:58;-12.20;80.90
67196;DHT22;54122;53.538;49.366;2023-02-24T03:09:29;-12.10;81.20
67196;DHT22;54122;53.538;49.366;2023-02-24T03:12:05;-12.10;81.00
67196;DHT22;54122;53.538;49.366;2023-02-24T03:14:37;-12.00;80.90
67196;DHT22;54122;53.538;49.366;2023-02-24T03:17:08;-12.10;81.90
67196;DHT22;54122;53.538;49.366;2023-02-24T03:19:38;-12.10;80.70
67196;DHT22;54122;53.538;49.366;2023-02-24T03:22:16;-12.10;80.80
67196;DHT22;54122;53.538;49.366;2023-02-24T03:24:44;-12.10;80.80
67196;DHT22;54122;53.538;49.366;2023-02-24T03:27:15;-12.10;80.70
67196;DHT22;54122;53.538;49.366;2023-02-24T03:32:30;-12.20;80.70
67196;DHT22;54122;53.538;49.366;2023-02-24T03:35:16;-12.20;80.80
67196;DHT22;54122;53.538;49.366;2023-02-24T03:37:44;-12.20;81.00
67196;DHT22;54122;53.538;49.366;2023-02-24T03:40:13;-12.20;81.00
67196;DHT22;54122;53.538;49.366;2023-02-24T03:42:44;-12.20;81.10
67196;DHT22;54122;53.538;49.366;2023-02-24T03:45:11;-12.30;81.00
67196;DHT22;54122;53.538;49.366;2023-02-24T03:47:38;-12.30;81.20
67196;DHT22;54122;53.538;49.366;2023-02-24T03:50:17;-12.30;81.00
67196;DHT22;54122;53.538;49.366;2023-02-24T04:03:59;-12.30;81.20
67196;DHT22;54122;53.538;49.366;2023-02-24T04:06:57;-12.30;81.10
67196;DHT22;54122;53.538;49.366;2023-02-24T04:12:24;-12.40;80.30
67196;DHT22;54122;53.538;49.366;2023-02-24T04:17:37;-12.60;78.60
67196;DHT22;54122;53.538;49.366;2023-02-24T04:20:06;-12.80;77.90
67196;DHT22;54122;53.538;49.366;2023-02-24T04:22:50;-13.00;77.70
67196;DHT22;54122;53.538;49.366;2023-02-24T04:25:22;-13.20;77.60
67196;DHT22;54122;53.538;49.366;2023-02-24T04:27:54;-13.30;77.80
67196;DHT22;54122;53.538;49.366;2023-02-24T04:30:21;-13.30;77.80
67196;DHT22;54122;53.538;49.366;2023-02-24T04:32:48;-13.40;77.90
67196;DHT22;54122;53.538;49.366;2023-02-24T04:35:19;-13.40;77.90
67196;DHT22;54122;53.538;49.366;2023-02-24T04:37:45;-13.40;77.90
67196;DHT22;54122;53.538;49.366;2023-02-24T04:40:13;-13.40;78.10
67196;DHT22;54122;53.538;49.366;2023-02-24T04:42:43;-13.40;78.20
67196;DHT22;54122;53.538;49.366;2023-02-24T04:45:16;-13.40;78.30
67196;DHT22;54122;53.538;49.366;2023-02-24T04:47:44;-13.40;78.30
67196;DHT22;54122;53.538;49.366;2023-02-24T04:50:12;-13.30;78.50
67196;DHT22;54122;53.538;49.366;2023-02-24T04:52:49;-13.20;78.50
67196;DHT22;54122;53.538;49.366;2023-02-24T04:55:15;-13.10;78.50
67196;DHT22;54122;53.538;49.366;2023-02-24T04:57:42;-13.00;78.40
67196;DHT22;54122;53.538;49.366;2023-02-24T05:00:13;-12.90;78.40
67196;DHT22;54122;53.538;49.366;2023-02-24T05:02:48;-12.80;78.40
67196;DHT22;54122;53.538;49.366;2023-02-24T05:05:16;-12.60;78.80
67196;DHT22;54122;53.538;49.366;2023-02-24T05:07:43;-11.70;81.00
67196;DHT22;54122;53.538;49.366;2023-02-24T05:10:13;-10.50;80.00
67196;DHT22;54122;53.538;49.366;2023-02-24T05:12:41;-9.20;78.40
67196;DHT22;54122;53.538;49.366;2023-02-24T05:15:08;-7.90;76.20
67196;DHT22;54122;53.538;49.366;2023-02-24T05:17:34;-6.80;74.70
67196;DHT22;54122;53.538;49.366;2023-02-24T05:20:01;-5.80;71.60
67196;DHT22;54122;53.538;49.366;2023-02-24T05:22:48;-4.90;69.80
67196;DHT22;54122;53.538;49.366;2023-02-24T05:25:18;-4.50;66.90
67196;DHT22;54122;53.538;49.366;2023-02-24T05:27:45;-4.70;65.00
67196;DHT22;54122;53.538;49.366;2023-02-24T05:30:12;-4.90;66.00
67196;DHT22;54122;53.538;49.366;2023-02-24T05:32:39;-4.70;66.40
67196;DHT22;54122;53.538;49.366;2023-02-24T05:35:06;-4.20;66.60
67196;DHT22;54122;53.538;49.366;2023-02-24T05:37:36;-3.70;65.70
67196;DHT22;54122;53.538;49.366;2023-02-24T05:40:03;-3.40;64.80
67196;DHT22;54122;53.538;49.366;2023-02-24T05:42:30;-3.30;62.60
67196;DHT22;54122;53.538;49.366;2023-02-24T05:45:00;-3.60;60.70
67196;DHT22;54122;53.538;49.366;2023-02-24T05:47:26;-4.20;60.90
67196;DHT22;54122;53.538;49.366;2023-02-24T05:49:53;-4.60;61.90
67196;DHT22;54122;53.538;49.366;2023-02-24T05:52:21;-4.50;64.00
67196;DHT22;54122;53.538;49.366;2023-02-24T05:54:47;-4.00;64.10
67196;DHT22;54122;53.538;49.366;2023-02-24T05:57:16;-3.20;63.40
67196;DHT22;54122;53.538;49.366;2023-02-24T05:59:50;-2.40;62.30
67196;DHT22;54122;53.538;49.366;2023-02-24T06:02:17;-1.70;59.80
67196;DHT22;54122;53.538;49.366;2023-02-24T06:04:52;-1.50;56.80
67196;DHT22;54122;53.538;49.366;2023-02-24T06:07:20;-1.30;55.00
67196;DHT22;54122;53.538;49.366;2023-02-24T06:09:52;-1.10;53.80
67196;DHT22;54122;53.538;49.366;2023-02-24T06:12:21;-1.00;53.90
67196;DHT22;54122;53.538;49.366;2023-02-24T06:14:47;-0.70;52.60
67196;DHT22;54122;53.538;49.366;2023-02-24T06:17:17;-0.60;51.80
67196;DHT22;54122;53.538;49.366;2023-02-24T06:19:44;-0.50;50.70
67196;DHT22;54122;53.538;49.366;2023-02-24T06:22:13;-0.30;50.60
67196;DHT22;54122;53.538;49.366;2023-02-24T06:24:40;-0.10;50.00
67196;DHT22;54122;53.538;49.366;2023-02-24T06:27:11;0.10;50.10
67196;DHT22;54122;53.538;49.366;2023-02-24T06:29:43;0.30;49.20
67196;DHT22;54122;53.538;49.366;2023-02-24T06:32:10;0.50;48.60
67196;DHT22;54122;53.538;49.366;2023-02-24T06:34:38;0.80;48.70
67196;DHT22;54122;53.538;49.366;2023-02-24T06:37:05;0.90;46.70
67196;DHT22;54122;53.538;49.366;2023-02-24T06:39:34;0.90;46.80
67196;DHT22;54122;53.538;49.366;2023-02-24T06:42:01;1.10;46.80
67196;DHT22;54122;53.538;49.366;2023-02-24T06:44:34;1.10;45.30
67196;DHT22;54122;53.538;49.366;2023-02-24T06:47:01;1.00;45.00
67196;DHT22;54122;53.538;49.366;2023-02-24T06:49:28;0.90;44.60
67196;DHT22;54122;53.538;49.366;2023-02-24T06:51:54;0.90;44.50
67196;DHT22;54122;53.538;49.366;2023-02-24T06:54:22;1.00;44.80
67196;DHT22;54122;53.538;49.366;2023-02-24T06:56:49;0.90;43.50
67196;DHT22;54122;53.538;49.366;2023-02-24T06:59:15;1.00;44.20
67196;DHT22;54122;53.538;49.366;2023-02-24T07:01:47;1.20;43.70
67196;DHT22;54122;53.538;49.366;2023-02-24T07:04:15;1.20;42.70
67196;DHT22;54122;53.538;49.366;2023-02-24T07:06:44;1.10;42.70
67196;DHT22;54122;53.538;49.366;2023-02-24T07:09:15;1.10;43.40
67196;DHT22;54122;53.538;49.366;2023-02-24T07:11:43;1.20;42.80
67196;DHT22;54122;53.538;49.366;2023-02-24T07:14:14;1.20;43.10
67196;DHT22;54122;53.538;49.366;2023-02-24T07:16:40;1.30;44.40
67196;DHT22;54122;53.538;49.366;2023-02-24T07:19:15;1.50;42.80
67196;DHT22;54122;53.538;49.366;2023-02-24T07:21:42;1.60;42.90
67196;DHT22;54122;53.538;49.366;2023-02-24T07:24:18;1.60;42.20
67196;DHT22;54122;53.538;49.366;2023-02-24T07:26:57;1.50;41.10
67196;DHT22;54122;53.538;49.366;2023-02-24T07:29:25;1.10;40.50
67196;DHT22;54122;53.538;49.366;2023-02-24T07:31:52;0.90;41.20
67196;DHT22;54122;53.538;49.366;2023-02-24T07:34:24;0.90;41.70
67196;DHT22;54122;53.538;49.366;2023-02-24T07:36:51;0.90;41.90
67196;DHT22;54122;53.538;49.366;2023-02-24T07:39:18;0.90;41.40
67196;DHT22;54122;53.538;49.366;2023-02-24T07:41:44;0.80;41.40
67196;DHT22;54122;53.538;49.366;2023-02-24T07:44:18;0.80;41.60
67196;DHT22;54122;53.538;49.366;2023-02-24T07:46:46;0.80;41.80
67196;DHT22;54122;53.538;49.366;2023-02-24T07:49:16;0.80;42.20
67196;DHT22;54122;53.538;49.366;2023-02-24T07:51:45;0.70;40.40
67196;DHT22;54122;53.538;49.366;2023-02-24T07:54:12;0.40;40.30
67196;DHT22;54122;53.538;49.366;2023-02-24T07:56:40;-0.20;40.70
67196;DHT22;54122;53.538;49.366;2023-02-24T07:59:12;-0.30;42.60
67196;DHT22;54122;53.538;49.366;2023-02-24T08:01:43;-0.10;42.90
67196;DHT22;54122;53.538;49.366;2023-02-24T08:04:28;-0.10;43.10
67196;DHT22;54122;53.538;49.366;2023-02-24T08:06:55;-0.20;42.60
67196;DHT22;54122;53.538;49.366;2023-02-24T08:09:26;-0.60;42.20
67196;DHT22;54122;53.538;49.366;2023-02-24T08:12:12;-0.80;42.90
67196;DHT22;54122;53.538;49.366;2023-02-24T08:14:47;-0.70;44.00
67196;DHT22;54122;53.538;49.366;2023-02-24T08:17:23;-0.40;44.20
67196;DHT22;54122;53.538;49.366;2023-02-24T08:19:52;0.10;43.90
67196;DHT22;54122;53.538;49.366;2023-02-24T08:22:38;0.20;43.30
67196;DHT22;54122;53.538;49.366;2023-02-24T08:25:09;0.50;43.30
67196;DHT22;54122;53.538;49.366;2023-02-24T08:27:44;0.60;42.70
67196;DHT22;54122;53.538;49.366;2023-02-24T08:30:11;0.60;42.50
67196;DHT22;54122;53.538;49.366;2023-02-24T08:32:52;0.50;42.10
67196;DHT22;54122;53.538;49.366;2023-02-24T08:35:27;0.40;42.50
67196;DHT22;54122;53.538;49.366;2023-02-24T08:38:03;0.30;42.10
67196;DHT22;54122;53.538;49.366;2023-02-24T08:40:33;-0.10;42.30
67196;DHT22;54122;53.538;49.366;2023-02-24T08:45:46;-0.40;43.20
67196;DHT22;54122;53.538;49.366;2023-02-24T08:48:19;-0.50;43.40
67196;DHT22;54122;53.538;49.366;2023-02-24T08:50:53;-0.50;43.50
67196;DHT22;54122;53.538;49.366;2023-02-24T08:53:20;-0.40;43.90
67196;DHT22;54122;53.538;49.366;2023-02-24T08:55:47;-0.50;43.90
67196;DHT22;54122;53.538;49.366;2023-02-24T08:58:17;-0.40;44.20
67196;DHT22;54122;53.538;49.366;2023-02-24T09:00:44;-0.30;44.40
67196;DHT22;54122;53.538;49.366;2023-02-24T09:03:15;-0.20;44.00
67196;DHT22;54122;53.538;49.366;2023-02-24T09:06:21;0.00;45.10
67196;DHT22;54122;53.538;49.366;2023-02-24T09:08:52;0.30;43.80
67196;DHT22;54122;53.538;49.366;2023-02-24T09:11:39;0.40;43.60
67196;DHT22;54122;53.538;49.366;2023-02-24T09:14:15;0.70;43.70
67196;DHT22;54122;53.538;49.366;2023-02-24T09:16:43;0.70;43.30
67196;DHT22;54122;53.538;49.366;2023-02-24T09:19:28;0.90;43.20
67196;DHT22;54122;53.538;49.366;2023-02-24T09:22:26;0.70;42.20
67196;DHT22;54122;53.538;49.366;2023-02-24T09:25:23;0.40;41.90
67196;DHT22;54122;53.538;49.366;2023-02-24T09:27:53;0.10;42.80
67196;DHT22;54122;53.538;49.366;2023-02-24T09:30:35;0.10;43.00
67196;DHT22;54122;53.538;49.366;2023-02-24T09:33:11;0.10;43.00
67196;DHT22;54122;53.538;49.366;2023-02-24T09:35:51;0.20;43.60
67196;DHT22;54122;53.538;49.366;2023-02-24T09:38:21;0.50;44.10
67196;DHT22;54122;53.538;49.366;2023-02-24T09:44:35;0.90;43.10
67196;DHT22;54122;53.538;49.366;2023-02-24T09:47:12;0.80;42.80
67196;DHT22;54122;53.538;49.366;2023-02-24T09:49:54;0.70;42.80
67196;DHT22;54122;53.538;49.366;2023-02-24T09:52:24;0.50;42.60
67196;DHT22;54122;53.538;49.366;2023-02-24T09:55:18;0.10;42.00
67196;DHT22;54122;53.538;49.366;2023-02-24T09:58:07;-0.30;42.60
67196;DHT22;54122;53.538;49.366;2023-02-24T10:00:38;-0.50;43.60
67196;DHT22;54122;53.538;49.366;2023-02-24T10:03:49;-0.60;44.30
67196;DHT22;54122;53.538;49.366;2023-02-24T10:11:44;-0.90;45.00
67196;DHT22;54122;53.538;49.366;2023-02-24T10:14:24;-1.00;44.80
67196;DHT22;54122;53.538;49.366;2023-02-24T10:16:54;-1.10;45.10
67196;DHT22;54122;53.538;49.366;2023-02-24T10:19:44;-1.20;45.20
67196;DHT22;54122;53.538;49.366;2023-02-24T10:22:20;-1.10;45.80
67196;DHT22;54122;53.538;49.366;2023-02-24T10:31:06;-0.90;45.80
67196;DHT22;54122;53.538;49.366;2023-02-24T10:33:45;-0.80;46.00
67196;DHT22;54122;53.538;49.366;2023-02-24T10:36:17;-0.70;46.20
67196;DHT22;54122;53.538;49.366;2023-02-24T10:38:44;-0.40;46.00
67196;DHT22;54122;53.538;49.366;2023-02-24T10:41:12;-0.10;44.60
67196;DHT22;54122;53.538;49.366;2023-02-24T10:43:38;-0.20;43.40
67196;DHT22;54122;53.538;49.366;2023-02-24T10:46:24;-0.50;43.20
67196;DHT22;54122;53.538;49.366;2023-02-24T10:48:56;-0.90;43.50
67196;DHT22;54122;53.538;49.366;2023-02-24T10:51:37;-1.00;44.20
67196;DHT22;54122;53.538;49.366;2023-02-24T10:56:48;-1.20;44.40
67196;DHT22;54122;53.538;49.366;2023-02-24T10:59:56;-1.50;44.90
67196;DHT22;54122;53.538;49.366;2023-02-24T11:02:47;-1.40;45.80
67196;DHT22;54122;53.538;49.366;2023-02-24T11:05:41;-1.30;46.10
67196;DHT22;54122;53.538;49.366;2023-02-24T11:08:35;-1.50;45.60
67196;DHT22;54122;53.538;49.366;2023-02-24T11:11:15;-1.90;45.30
67196;DHT22;54122;53.538;49.366;2023-02-24T11:13:51;-2.30;45.90
67196;DHT22;54122;53.538;49.366;2023-02-24T11:16:43;-2.60;46.80
67196;DHT22;54122;53.538;49.366;2023-02-24T11:19:30;-2.70;47.90
67196;DHT22;54122;53.538;49.366;2023-02-24T11:21:57;-2.90;47.90
67196;DHT22;54122;53.538;49.366;2023-02-24T11:24:24;-3.10;47.80
67196;DHT22;54122;53.538;49.366;2023-02-24T11:26:51;-3.30;48.30
67196;DHT22;54122;53.538;49.366;2023-02-24T11:29:47;-3.40;48.80
67196;DHT22;54122;53.538;49.366;2023-02-24T11:35:20;-3.40;49.30
67196;DHT22;54122;53.538;49.366;2023-02-24T11:38:25;-3.50;49.40
67196;DHT22;54122;53.538;49.366;2023-02-24T11:40:47;-3.60;49.50
67196;DHT22;54122;53.538;49.366;2023-02-24T11:43:22;-3.80;49.80
67196;DHT22;54122;53.538;49.366;2023-02-24T11:46:13;-3.80;50.30
67196;DHT22;54122;53.538;49.366;2023-02-24T11:48:45;-3.80;50.60
67196;DHT22;54122;53.538;49.366;2023-02-24T11:51:21;-4.00;50.70
67196;DHT22;54122;53.538;49.366;2023-02-24T11:53:58;-4.00;51.10
67196;DHT22;54122;53.538;49.366;2023-02-24T11:56:30;-4.10;51.50
67196;DHT22;54122;53.538;49.366;2023-02-24T11:59:16;-4.20;51.80
67196;DHT22;54122;53.538;49.366;2023-02-24T12:05:16;-4.50;52.30
67196;DHT22;54122;53.538;49.366;2023-02-24T12:07:50;-4.60;52.90
67196;DHT22;54122;53.538;49.366;2023-02-24T12:10:37;-4.70;53.40
67196;DHT22;54122;53.538;49.366;2023-02-24T12:18:37;-5.00;54.60
67196;DHT22;54122;53.538;49.366;2023-02-24T12:21:19;-5.00;54.90
67196;DHT22;54122;53.538;49.366;2023-02-24T12:23:47;-5.10;55.20
67196;DHT22;54122;53.538;49.366;2023-02-24T12:26:36;-5.20;55.70
67196;DHT22;54122;53.538;49.366;2023-02-24T12:32:23;-5.50;56.30
67196;DHT22;54122;53.538;49.366;2023-02-24T12:34:55;-5.50;56.90
67196;DHT22;54122;53.538;49.366;2023-02-24T12:40:58;-5.50;57.30
67196;DHT22;54122;53.538;49.366;2023-02-24T12:43:25;-5.50;57.40
67196;DHT22;54122;53.538;49.366;2023-02-24T12:46:06;-5.40;57.50
67196;DHT22;54122;53.538;49.366;2023-02-24T12:59:24;-5.60;58.30
67196;DHT22;54122;53.538;49.366;2023-02-24T13:04:51;-5.70;58.70
67196;DHT22;54122;53.538;49.366;2023-02-24T13:13:12;-6.00;59.20
67196;DHT22;54122;53.538;49.366;2023-02-24T13:15:53;-6.00;59.80
67196;DHT22;54122;53.538;49.366;2023-02-24T13:18:34;-6.10;60.00
67196;DHT22;54122;53.538;49.366;2023-02-24T13:23:55;-6.20;60.50
67196;DHT22;54122;53.538;49.366;2023-02-24T13:26:23;-6.40;60.80
67196;DHT22;54122;53.538;49.366;2023-02-24T13:29:10;-6.50;61.20
67196;DHT22;54122;53.538;49.366;2023-02-24T13:31:43;-6.60;61.60
67196;DHT22;54122;53.538;49.366;2023-02-24T13:36:50;-6.80;62.30
67196;DHT22;54122;53.538;49.366;2023-02-24T13:39:37;-6.90;62.60
67196;DHT22;54122;53.538;49.366;2023-02-24T13:56:07;-7.30;64.20
67196;DHT22;54122;53.538;49.366;2023-02-24T13:58:50;-7.30;64.40
67196;DHT22;54122;53.538;49.366;2023-02-24T14:01:20;-7.40;64.70
67196;DHT22;54122;53.538;49.366;2023-02-24T14:04:05;-7.40;65.00
67196;DHT22;54122;53.538;49.366;2023-02-24T14:06:45;-7.40;65.00
67196;DHT22;54122;53.538;49.366;2023-02-24T14:09:16;-7.40;65.10
67196;DHT22;54122;53.538;49.366;2023-02-24T14:11:43;-7.40;65.30
67196;DHT22;54122;53.538;49.366;2023-02-24T14:14:15;-7.40;65.50
67196;DHT22;54122;53.538;49.366;2023-02-24T14:16:43;-7.40;65.80
67196;DHT22;54122;53.538;49.366;2023-02-24T14:19:14;-7.40;65.70
67196;DHT22;54122;53.538;49.366;2023-02-24T14:21:56;-7.40;66.00
67196;DHT22;54122;53.538;49.366;2023-02-24T14:24:25;-7.40;66.10
67196;DHT22;54122;53.538;49.366;2023-02-24T14:26:55;-7.50;66.10
67196;DHT22;54122;53.538;49.366;2023-02-24T14:29:27;-7.50;66.30
67196;DHT22;54122;53.538;49.366;2023-02-24T14:31:57;-7.50;66.60
67196;DHT22;54122;53.538;49.366;2023-02-24T14:34:25;-7.50;66.80
67196;DHT22;54122;53.538;49.366;2023-02-24T14:36:58;-7.50;67.00
67196;DHT22;54122;53.538;49.366;2023-02-24T14:39:27;-7.50;67.10
67196;DHT22;54122;53.538;49.366;2023-02-24T14:42:23;-7.50;67.20
67196;DHT22;54122;53.538;49.366;2023-02-24T14:44:52;-7.50;67.30
67196;DHT22;54122;53.538;49.366;2023-02-24T14:47:22;-7.50;67.50
67196;DHT22;54122;53.538;49.366;2023-02-24T14:49:58;-7.50;68.50
67196;DHT22;54122;53.538;49.366;2023-02-24T14:54:58;-7.40;67.80
67196;DHT22;54122;53.538;49.366;2023-02-24T14:57:28;-7.40;67.70
67196;DHT22;54122;53.538;49.366;2023-02-24T15:00:01;-7.40;67.70
67196;DHT22;54122;53.538;49.366;2023-02-24T15:02:39;-7.40;67.80
67196;DHT22;54122;53.538;49.366;2023-02-24T15:05:09;-7.40;67.90
67196;DHT22;54122;53.538;49.366;2023-02-24T15:07:37;-7.40;67.90
67196;DHT22;54122;53.538;49.366;2023-02-24T15:10:05;-7.40;67.90
67196;DHT22;54122;53.538;49.366;2023-02-24T15:12:46;-7.40;67.90
67196;DHT22;54122;53.538;49.366;2023-02-24T15:15:25;-7.40;67.90
67196;DHT22;54122;53.538;49.366;2023-02-24T15:18:01;-7.40;67.90
67196;DHT22;54122;53.538;49.366;2023-02-24T15:20:35;-7.40;68.00
67196;DHT22;54122;53.538;49.366;2023-02-24T15:23:04;-7.40;68.10
67196;DHT22;54122;53.538;49.366;2023-02-24T15:25:41;-7.40;68.10
67196;DHT22;54122;53.538;49.366;2023-02-24T15:28:35;-7.40;68.20
67196;DHT22;54122;53.538;49.366;2023-02-24T15:31:08;-7.40;68.30
67196;DHT22;54122;53.538;49.366;2023-02-24T15:33:42;-7.40;69.40
67196;DHT22;54122;53.538;49.366;2023-02-24T15:36:18;-7.40;68.40
67196;DHT22;54122;53.538;49.366;2023-02-24T15:38:45;-7.40;68.30
67196;DHT22;54122;53.538;49.366;2023-02-24T15:41:15;-7.40;68.40
67196;DHT22;54122;53.538;49.366;2023-02-24T15:43:47;-7.40;68.40
67196;DHT22;54122;53.538;49.366;2023-02-24T15:48:46;-7.40;68.40
67196;DHT22;54122;53.538;49.366;2023-02-24T15:53:52;-7.30;68.50
67196;DHT22;54122;53.538;49.366;2023-02-24T15:56:18;-7.30;68.50
67196;DHT22;54122;53.538;49.366;2023-02-24T15:58:45;-7.30;68.50
67196;DHT22;54122;53.538;49.366;2023-02-24T16:01:12;-7.20;68.60
67196;DHT22;54122;53.538;49.366;2023-02-24T16:03:38;-7.20;68.70
67196;DHT22;54122;53.538;49.366;2023-02-24T16:06:06;-7.20;68.70
67196;DHT22;54122;53.538;49.366;2023-02-24T16:08:32;-7.20;68.70
67196;DHT22;54122;53.538;49.366;2023-02-24T16:11:10;-7.20;68.90
67196;DHT22;54122;53.538;49.366;2023-02-24T16:13:36;-7.20;68.90
67196;DHT22;54122;53.538;49.366;2023-02-24T16:16:05;-7.20;69.10
67196;DHT22;54122;53.538;49.366;2023-02-24T16:18:32;-7.20;69.10
67196;DHT22;54122;53.538;49.366;2023-02-24T16:20:58;-7.20;69.20
67196;DHT22;54122;53.538;49.366;2023-02-24T16:23:25;-7.10;69.20
67196;DHT22;54122;53.538;49.366;2023-02-24T16:25:56;-7.10;69.40
67196;DHT22;54122;53.538;49.366;2023-02-24T16:28:24;-7.10;69.50
67196;DHT22;54122;53.538;49.366;2023-02-24T16:30:51;-7.10;69.60
67196;DHT22;54122;53.538;49.366;2023-02-24T16:33:18;-7.10;69.50
67196;DHT22;54122;53.538;49.366;2023-02-24T16:35:49;-7.10;69.50
67196;DHT22;54122;53.538;49.366;2023-02-24T16:38:18;-7.10;69.60
67196;DHT22;54122;53.538;49.366;2023-02-24T16:40:47;-7.10;69.60
67196;DHT22;54122;53.538;49.366;2023-02-24T16:43:14;-7.10;69.60
67196;DHT22;54122;53.538;49.366;2023-02-24T16:45:41;-7.10;69.60
67196;DHT22;54122;53.538;49.366;2023-02-24T16:48:28;-7.00;69.60
67196;DHT22;54122;53.538;49.366;2023-02-24T16:51:00;-7.00;69.70
67196;DHT22;54122;53.538;49.366;2023-02-24T16:53:26;-7.00;69.80
67196;DHT22;54122;53.538;49.366;2023-02-24T16:55:52;-7.00;69.80
67196;DHT22;54122;53.538;49.366;2023-02-24T16:58:19;-7.00;69.80
67196;DHT22;54122;53.538;49.366;2023-02-24T17:00:47;-7.00;69.70
67196;DHT22;54122;53.538;49.366;2023-02-24T17:03:27;-7.00;69.80
67196;DHT22;54122;53.538;49.366;2023-02-24T17:05:55;-7.00;69.80
67196;DHT22;54122;53.538;49.366;2023-02-24T17:08:22;-7.00;69.80
67196;DHT22;54122;53.538;49.366;2023-02-24T17:10:49;-7.00;69.90
67196;DHT22;54122;53.538;49.366;2023-02-24T17:13:19;-7.00;69.80
67196;DHT22;54122;53.538;49.366;2023-02-24T17:15:46;-7.00;69.80
67196;DHT22;54122;53.538;49.366;2023-02-24T17:18:12;-7.00;69.80
67196;DHT22;54122;53.538;49.366;2023-02-24T17:20:39;-7.00;69.80
67196;DHT22;54122;53.538;49.366;2023-02-24T17:23:08;-6.90;69.70
67196;DHT22;54122;53.538;49.366;2023-02-24T17:25:34;-6.90;69.70
67196;DHT22;54122;53.538;49.366;2023-02-24T17:28:00;-6.90;69.70
67196;DHT22;54122;53.538;49.366;2023-02-24T17:30:32;-6.90;69.50
67196;DHT22;54122;53.538;49.366;2023-02-24T17:32:59;-6.90;70.40
67196;DHT22;54122;53.538;49.366;2023-02-24T17:35:26;-6.90;69.50
67196;DHT22;54122;53.538;49.366;2023-02-24T17:37:52;-6.90;69.50
67196;DHT22;54122;53.538;49.366;2023-02-24T17:40:19;-6.90;69.30
67196;DHT22;54122;53.538;49.366;2023-02-24T17:42:45;-6.90;69.30
67196;DHT22;54122;53.538;49.366;2023-02-24T17:45:13;-6.90;69.20
67196;DHT22;54122;53.538;49.366;2023-02-24T17:47:40;-6.90;70.20
67196;DHT22;54122;53.538;49.366;2023-02-24T17:50:08;-6.90;69.10
67196;DHT22;54122;53.538;49.366;2023-02-24T17:52:35;-6.90;69.10